Double Eagle Ii, NM

11:50 PM MDT on September 23, 2014 (GMT -0600)
Next to the Petroglyph Natl. Monument | Change Station
CLOSE
Current Station
Personal Weather Station
Location: Albuquerque, NM
Elevation: 5245 ft
Nearby Weather Stations

Elev 5245 ft 35.11 °N, 106.74 °W | Updated 15 seconds ago

Clear
Clear
67.6 °F
Feels Like 67.6 °F
N
0.0
Wind Variable Wind from SW
Gusts 0.0 mph

Today
High -- | Low -- °F
--% Chance of Precip.
Yesterday
High -- | Low -- °F
Precip. -- in
6:55 AM 7:02 PM
Waning Crescent, 0% visible
Pressure 30.01 in
Visibility 10.0 miles
Clouds Clear
Dew Point 55 °F
Humidity 65%
Rainfall 0.00 in
Snow Depth 1 in , 0 in , 0 in
UV 0 out of 12
Pollen 6.30 out of 12
Air Quality Not available.
Flu Activity Not available.
METAR KABQ 240452Z 12005KT 10SM CLR 20/14 A3022 RMK AO2 SLP161 T02000139

More Conditions Fewer Conditions

Pressure 30.01 in
Visibility 10.0 miles
Clouds Clear
Dew Point 55 °F
Humidity 65%
Rainfall 0.00 in
Snow Depth 1 in , 0 in , 0 in
UV 0 out of 12
Pollen 6.30 out of 12
Air Quality Not available.
Flu Activity Not available.
METAR KABQ 240452Z 12005KT 10SM CLR 20/14 A3022 RMK AO2 SLP161 T02000139

More Conditions Fewer Conditions

10-Day Weather Forecast

Almanac

Astronomy

Sep. 23, 2014 Rise Set
Actual Time 6:55 AM MDT 7:02 PM MDT
Civil Twilight 6:30 AM MDT 7:27 PM MDT
Nautical Twilight 6:01 AM MDT 7:57 PM MDT
Astronomical Twilight 5:31 AM MDT 8:27 PM MDT
Moon 6:23 AM MDT (9/23) 6:43 PM MDT (9/23)
Length of Visible Light 12h 57m
Length of Day
12h 06m
Tomorrow will be 2m 11s shorter.
Waning Crescent, 0% of the Moon is Illuminated
Sep 24
Waning Crescent
Sep 24
New
Oct 1
First Quarter
Oct 8
Full
Oct 15
Last Quarter

Yesterday's Extremes

State Highs State Lows

Community

WunderPhotos

Upload Photos

1,755,891 photos uploaded!

WunderBlogs® & News

Nearby

Snow Depth

Station Depth Elevation
Quemazon 1 in 9500 ft
McKnight Cabin 0 in 9240 ft
Santa Fe 0 in 11445 ft
Elk Cabin 0 in 8210 ft
Wesner Springs 3 in 11120 ft

Earthquake Activity

City Distance Mag. Time & Date
No recent earthquake activity has been reported nearby.
Minimum magnitude displayed is 2.5.

Coastal Water Temperatures

Place Temperature
No Stations Reporting

Nearby Weather Stations